createdAt,value
2022-11-16T00:00:22.432Z,73.28
2022-11-16T00:01:26.825Z,73.20
2022-11-16T00:02:28.501Z,73.20
2022-11-16T00:03:31.580Z,73.08
2022-11-16T00:04:33.337Z,73.02
2022-11-16T00:05:35.028Z,73.01
2022-11-16T00:06:36.667Z,72.88
2022-11-16T00:07:38.482Z,72.66
2022-11-16T00:08:43.216Z,72.48
2022-11-16T00:09:44.905Z,72.38
2022-11-16T00:10:46.572Z,72.40
2022-11-16T00:11:54.189Z,72.87
2022-11-16T00:12:55.880Z,72.78
2022-11-16T00:13:57.558Z,72.83
2022-11-16T00:14:59.230Z,72.50
2022-11-16T00:16:00.998Z,72.45
2022-11-16T00:17:03.371Z,72.44
2022-11-16T00:18:05.050Z,72.64
2022-11-16T00:19:07.874Z,72.79
2022-11-16T00:20:10.147Z,72.95
2022-11-16T00:21:11.868Z,73.11
2022-11-16T00:22:13.515Z,73.14
2022-11-16T00:23:15.161Z,73.21
2022-11-16T00:24:18.580Z,73.23
2022-11-16T00:25:20.255Z,73.19
2022-11-16T00:26:24.578Z,73.34
2022-11-16T00:27:26.272Z,73.74
2022-11-16T00:28:28.608Z,73.99
2022-11-16T00:29:30.321Z,73.54
2022-11-16T00:30:31.981Z,73.44
2022-11-16T00:31:33.632Z,73.70
2022-11-16T00:32:35.312Z,73.48
2022-11-16T00:33:37.392Z,73.38
2022-11-16T00:34:39.868Z,73.36
2022-11-16T00:35:41.990Z,73.75
2022-11-16T00:36:44.446Z,73.74
2022-11-16T00:37:46.173Z,73.85
2022-11-16T00:38:47.928Z,74.07
2022-11-16T00:39:49.588Z,73.41
2022-11-16T00:40:51.264Z,73.94
2022-11-16T00:41:52.984Z,74.02
2022-11-16T00:42:54.622Z,74.63
2022-11-16T00:43:56.577Z,74.57
2022-11-16T00:44:58.248Z,74.95
2022-11-16T00:45:59.933Z,75.01
2022-11-16T00:47:01.616Z,74.54
2022-11-16T00:48:03.361Z,74.65
2022-11-16T00:49:05.818Z,74.96
2022-11-16T00:50:07.734Z,74.60
2022-11-16T00:51:09.475Z,74.66
2022-11-16T00:52:11.128Z,74.45
2022-11-16T00:53:14.451Z,74.06
2022-11-16T00:54:16.143Z,73.87
2022-11-16T00:55:17.932Z,74.04
2022-11-16T00:56:19.586Z,73.98
2022-11-16T00:57:21.302Z,73.95
2022-11-16T00:58:23.284Z,74.04
2022-11-16T00:59:24.973Z,73.54
2022-11-16T01:00:26.949Z,73.54
2022-11-16T01:01:29.000Z,73.16
2022-11-16T01:02:30.735Z,73.45
2022-11-16T01:03:33.031Z,73.76
2022-11-16T01:04:34.737Z,73.65
2022-11-16T01:05:36.665Z,74.11
2022-11-16T01:06:38.312Z,74.27
2022-11-16T01:07:41.240Z,73.92
2022-11-16T01:08:44.159Z,74.01
2022-11-16T01:09:45.842Z,73.96
2022-11-16T01:10:47.504Z,73.66
2022-11-16T01:12:07.707Z,73.57
2022-11-16T01:13:10.956Z,73.88
2022-11-16T01:14:12.705Z,73.65
2022-11-16T01:15:14.591Z,73.57
2022-11-16T01:16:18.088Z,73.12
2022-11-16T01:17:19.721Z,73.26
2022-11-16T01:18:21.362Z,73.26
2022-11-16T01:19:23.118Z,72.99
2022-11-16T01:20:27.500Z,72.77
2022-11-16T01:21:29.187Z,72.83
2022-11-16T01:22:30.905Z,72.61
2022-11-16T01:23:32.647Z,72.46
2022-11-16T01:24:34.474Z,72.63
2022-11-16T01:25:36.141Z,72.48
2022-11-16T01:26:37.908Z,72.48
2022-11-16T01:27:40.223Z,72.77
2022-11-16T01:28:42.066Z,72.93
2022-11-16T01:29:43.963Z,72.95
2022-11-16T01:30:48.915Z,72.64
2022-11-16T01:31:50.670Z,73.02
2022-11-16T01:32:52.381Z,72.81
2022-11-16T01:33:54.920Z,72.91
2022-11-16T01:34:56.579Z,72.70
2022-11-16T01:35:58.355Z,72.85
2022-11-16T01:37:00.011Z,73.72
2022-11-16T01:38:01.695Z,73.40
2022-11-16T01:39:05.613Z,73.38
2022-11-16T01:40:08.173Z,73.61
2022-11-16T01:41:14.351Z,73.16
2022-11-16T01:42:21.676Z,73.70
2022-11-16T01:43:25.649Z,73.50
2022-11-16T01:44:33.341Z,73.37
2022-11-16T01:45:39.584Z,73.24
2022-11-16T01:46:42.300Z,73.66
2022-11-16T01:47:44.392Z,73.60
2022-11-16T01:48:47.122Z,73.49
2022-11-16T01:50:09.105Z,72.81
2022-11-16T01:51:11.047Z,72.45
2022-11-16T01:52:17.176Z,72.73
2022-11-16T01:53:19.311Z,72.65
2022-11-16T01:54:21.173Z,72.73
2022-11-16T01:55:23.797Z,73.09
2022-11-16T01:56:26.218Z,73.23
2022-11-16T01:57:41.026Z,72.78
2022-11-16T01:58:43.049Z,72.71
2022-11-16T01:59:48.055Z,72.37
2022-11-16T02:00:49.917Z,72.68
2022-11-16T02:01:51.906Z,72.53
2022-11-16T02:02:53.857Z,73.25
2022-11-16T02:03:55.635Z,73.47
2022-11-16T02:04:58.712Z,73.51
2022-11-16T02:06:15.165Z,73.89
2022-11-16T02:08:03.172Z,73.82
2022-11-16T02:09:41.520Z,74.18
2022-11-16T02:11:21.447Z,74.22
2022-11-16T02:12:57.266Z,74.79
2022-11-16T02:14:16.457Z,74.88
2022-11-16T02:15:42.215Z,75.14
2022-11-16T02:17:01.781Z,75.12
2022-11-16T02:18:18.277Z,75.16
2022-11-16T02:19:53.406Z,75.60
2022-11-16T02:21:19.420Z,75.92
2022-11-16T02:22:27.395Z,75.29
2022-11-16T02:23:31.954Z,75.63
2022-11-16T02:24:39.666Z,75.44
2022-11-16T02:26:06.285Z,75.58
2022-11-16T02:27:10.917Z,75.30
2022-11-16T02:28:44.451Z,75.57
2022-11-16T02:29:50.250Z,74.96
2022-11-16T02:30:55.054Z,74.86
2022-11-16T02:32:06.150Z,74.70
2022-11-16T02:33:12.333Z,74.89
2022-11-16T02:34:18.077Z,74.71
2022-11-16T02:35:22.912Z,74.79
2022-11-16T02:36:25.839Z,74.70
2022-11-16T02:37:31.887Z,74.51
2022-11-16T02:38:38.720Z,74.94
2022-11-16T02:39:43.358Z,75.03
2022-11-16T02:40:50.748Z,75.28
2022-11-16T02:41:54.631Z,75.14
2022-11-16T02:43:11.761Z,75.34
2022-11-16T02:44:19.644Z,75.20
2022-11-16T02:45:26.338Z,75.51
2022-11-16T02:46:36.800Z,74.64
2022-11-16T02:47:41.506Z,74.46
2022-11-16T02:48:48.129Z,74.32
2022-11-16T02:49:56.843Z,74.13
2022-11-16T02:50:58.581Z,74.32
2022-11-16T02:52:01.086Z,74.23
2022-11-16T02:53:03.583Z,74.53
2022-11-16T02:54:12.975Z,75.09
2022-11-16T02:55:14.922Z,75.07
2022-11-16T02:56:16.715Z,75.19
2022-11-16T02:57:26.995Z,75.64
2022-11-16T02:58:29.626Z,75.66
2022-11-16T02:59:36.870Z,75.80
2022-11-16T03:00:52.165Z,75.88
2022-11-16T03:02:08.137Z,75.17
2022-11-16T03:03:35.130Z,75.50
2022-11-16T03:04:43.621Z,75.11
2022-11-16T03:05:51.257Z,74.49
2022-11-16T03:06:56.496Z,74.58
2022-11-16T03:08:19.465Z,74.97
2022-11-16T03:09:27.945Z,74.74
2022-11-16T03:10:49.252Z,74.96
2022-11-16T03:12:00.729Z,75.37
2022-11-16T03:13:03.822Z,76.16
2022-11-16T03:14:15.106Z,75.79
2022-11-16T03:15:17.237Z,76.62
2022-11-16T03:16:50.593Z,78.05
2022-11-16T03:17:52.871Z,78.22
2022-11-16T03:18:56.962Z,78.56
2022-11-16T03:20:07.780Z,79.33
2022-11-16T03:21:28.635Z,79.24
2022-11-16T03:22:39.523Z,78.77
2022-11-16T03:23:41.868Z,78.07
2022-11-16T03:24:43.657Z,77.45
2022-11-16T03:25:50.787Z,77.57
2022-11-16T03:27:05.649Z,77.40
2022-11-16T03:28:20.200Z,76.67
2022-11-16T03:29:30.885Z,75.73
2022-11-16T03:30:41.329Z,75.38
2022-11-16T03:31:50.669Z,75.54
2022-11-16T03:33:08.377Z,75.45
2022-11-16T03:34:16.544Z,75.42
2022-11-16T03:35:23.328Z,75.24
2022-11-16T03:36:40.849Z,75.69
2022-11-16T03:37:46.104Z,75.96
2022-11-16T03:38:50.894Z,75.83
2022-11-16T03:39:53.988Z,76.22
2022-11-16T03:41:03.204Z,76.80
2022-11-16T03:42:10.833Z,77.05
2022-11-16T03:43:14.493Z,77.60
2022-11-16T03:44:18.926Z,77.45
2022-11-16T03:45:21.143Z,76.80
2022-11-16T03:46:22.889Z,76.85
2022-11-16T03:47:24.582Z,76.97
2022-11-16T03:48:32.269Z,76.71
2022-11-16T03:49:34.191Z,76.83
2022-11-16T03:50:35.907Z,77.10
2022-11-16T03:51:37.918Z,76.72
2022-11-16T03:52:39.636Z,77.17
2022-11-16T03:53:41.329Z,76.98
2022-11-16T03:54:43.148Z,76.38
2022-11-16T03:55:49.584Z,76.86
2022-11-16T03:56:51.775Z,77.04
2022-11-16T03:57:53.424Z,77.10
2022-11-16T03:58:55.285Z,77.41
2022-11-16T03:59:57.137Z,76.89
2022-11-16T04:00:58.931Z,76.63
2022-11-16T04:02:00.653Z,77.34
2022-11-16T04:03:02.371Z,77.52
2022-11-16T04:04:04.133Z,76.69
2022-11-16T04:05:24.323Z,76.75
2022-11-16T04:06:44.394Z,76.43
2022-11-16T04:08:06.532Z,76.48
2022-11-16T04:09:30.039Z,76.49
2022-11-16T04:10:49.980Z,75.96
2022-11-16T04:12:09.965Z,75.95
2022-11-16T04:13:33.841Z,75.81
2022-11-16T04:14:54.130Z,75.79
2022-11-16T04:16:14.057Z,75.44
2022-11-16T04:17:36.492Z,75.32
2022-11-16T04:18:57.069Z,75.64
2022-11-16T04:20:17.119Z,76.80
2022-11-16T04:22:09.690Z,76.69
2022-11-16T04:23:33.169Z,76.93
2022-11-16T04:24:38.474Z,76.47
2022-11-16T04:25:41.937Z,76.16
2022-11-16T04:27:06.864Z,76.74
2022-11-16T04:28:14.756Z,76.64
2022-11-16T04:29:16.687Z,76.11
2022-11-16T04:30:18.520Z,75.93
2022-11-16T04:31:38.945Z,76.15
2022-11-16T04:32:59.542Z,76.70
2022-11-16T04:34:20.097Z,76.31
2022-11-16T04:35:33.621Z,76.29
2022-11-16T04:36:54.036Z,76.32
2022-11-16T04:37:58.426Z,76.94
2022-11-16T04:39:00.284Z,77.00
2022-11-16T04:40:02.193Z,77.43
2022-11-16T04:41:03.860Z,76.92
2022-11-16T04:42:14.773Z,77.51
2022-11-16T04:43:16.521Z,76.54
2022-11-16T04:44:18.915Z,76.47
2022-11-16T04:45:40.328Z,76.01
2022-11-16T04:47:00.839Z,76.31
2022-11-16T04:48:02.951Z,75.48
2022-11-16T04:49:04.648Z,75.53
2022-11-16T04:50:06.595Z,75.58
2022-11-16T04:51:08.270Z,75.95
2022-11-16T04:52:10.272Z,75.16
2022-11-16T04:53:12.563Z,75.15
2022-11-16T04:54:14.313Z,75.75
2022-11-16T04:55:15.989Z,75.56
2022-11-16T04:56:17.699Z,76.09
2022-11-16T04:57:19.346Z,76.30
2022-11-16T04:58:21.046Z,76.46
2022-11-16T04:59:22.769Z,76.36
2022-11-16T05:00:24.551Z,76.18
2022-11-16T05:01:44.944Z,77.13
2022-11-16T05:02:46.669Z,76.76
2022-11-16T05:03:48.331Z,76.48
2022-11-16T05:04:50.055Z,76.26
2022-11-16T05:05:51.751Z,76.25
2022-11-16T05:06:53.628Z,76.01
2022-11-16T05:07:55.430Z,76.14
2022-11-16T05:08:57.073Z,76.21
2022-11-16T05:09:58.765Z,76.28
2022-11-16T05:11:00.423Z,76.19
2022-11-16T05:12:02.060Z,76.34
2022-11-16T05:13:03.728Z,75.63
2022-11-16T05:14:06.376Z,76.06
2022-11-16T05:15:09.183Z,76.27
2022-11-16T05:16:10.833Z,76.29
2022-11-16T05:17:13.552Z,76.05
2022-11-16T05:18:15.237Z,76.16
2022-11-16T05:19:35.144Z,76.67
2022-11-16T05:20:55.007Z,76.46
2022-11-16T05:21:56.708Z,75.96
2022-11-16T05:22:58.968Z,75.59
2022-11-16T05:24:18.887Z,75.12
2022-11-16T05:25:20.609Z,74.91
2022-11-16T05:26:22.290Z,74.49
2022-11-16T05:27:25.523Z,74.95
2022-11-16T05:28:27.233Z,74.75
2022-11-16T05:29:29.029Z,74.70
2022-11-16T05:30:30.763Z,75.19
2022-11-16T05:31:36.349Z,75.04
2022-11-16T05:32:41.893Z,75.68
2022-11-16T05:33:43.987Z,75.46
2022-11-16T05:34:46.039Z,75.47
2022-11-16T05:35:51.024Z,75.71
2022-11-16T05:36:53.128Z,76.12
2022-11-16T05:37:54.850Z,76.14
2022-11-16T05:38:56.627Z,76.12
2022-11-16T05:39:58.267Z,76.10
2022-11-16T05:40:59.956Z,75.74
2022-11-16T05:42:02.052Z,76.01
2022-11-16T05:43:03.699Z,75.60
2022-11-16T05:44:05.458Z,75.29
2022-11-16T05:45:07.566Z,75.83
2022-11-16T05:46:09.947Z,75.51
2022-11-16T05:47:11.581Z,75.34
2022-11-16T05:48:13.256Z,76.21
2022-11-16T05:49:16.055Z,75.62
2022-11-16T05:50:17.839Z,75.75
2022-11-16T05:51:19.501Z,75.46
2022-11-16T05:52:21.149Z,75.77
2022-11-16T05:53:22.826Z,75.78
2022-11-16T05:54:26.221Z,76.22
2022-11-16T05:55:27.958Z,75.94
2022-11-16T05:56:30.302Z,76.41
2022-11-16T05:57:32.038Z,76.29
2022-11-16T05:58:33.970Z,76.82
2022-11-16T05:59:36.135Z,76.41
2022-11-16T06:00:37.791Z,77.04
2022-11-16T06:01:39.985Z,76.89
2022-11-16T06:02:41.903Z,76.68
2022-11-16T06:03:43.723Z,76.82
2022-11-16T06:04:45.377Z,76.70
2022-11-16T06:05:47.074Z,76.74
2022-11-16T06:06:48.755Z,77.13
2022-11-16T06:07:50.417Z,77.40
2022-11-16T06:08:52.135Z,77.34
2022-11-16T06:09:53.816Z,77.82
2022-11-16T06:10:55.925Z,78.14
2022-11-16T06:11:57.628Z,77.73
2022-11-16T06:12:59.282Z,78.34
2022-11-16T06:14:00.932Z,77.86
2022-11-16T06:15:02.624Z,77.96
2022-11-16T06:16:05.188Z,77.75
2022-11-16T06:17:06.837Z,78.09
2022-11-16T06:18:09.193Z,78.25
2022-11-16T06:19:10.866Z,78.61
2022-11-16T06:20:12.641Z,78.18
2022-11-16T06:21:16.579Z,78.43
2022-11-16T06:22:18.261Z,78.37
2022-11-16T06:23:20.015Z,78.55
2022-11-16T06:24:21.769Z,78.38
2022-11-16T06:25:23.475Z,78.83
2022-11-16T06:26:25.167Z,78.71
2022-11-16T06:27:26.828Z,78.52
2022-11-16T06:28:28.995Z,78.28
2022-11-16T06:29:30.644Z,78.68
2022-11-16T06:30:32.365Z,78.84
2022-11-16T06:31:34.024Z,79.35
2022-11-16T06:32:35.686Z,79.92
2022-11-16T06:33:37.378Z,79.42
2022-11-16T06:34:39.004Z,79.33
2022-11-16T06:35:41.123Z,79.62
2022-11-16T06:36:42.822Z,79.96
2022-11-16T06:37:44.483Z,80.00
2022-11-16T06:38:46.177Z,79.88
2022-11-16T06:39:47.842Z,79.56
2022-11-16T06:40:54.990Z,79.56
2022-11-16T06:41:56.651Z,79.66
2022-11-16T06:42:58.401Z,79.66
2022-11-16T06:44:00.114Z,78.32
2022-11-16T06:45:01.920Z,78.62
2022-11-16T06:46:03.716Z,79.73
2022-11-16T06:47:05.412Z,80.84
2022-11-16T06:48:07.225Z,80.93
2022-11-16T06:49:08.894Z,79.78
2022-11-16T06:50:10.725Z,78.64
2022-11-16T06:51:12.437Z,77.73
2022-11-16T06:52:14.128Z,77.95
2022-11-16T06:53:15.938Z,75.04
2022-11-16T06:54:17.591Z,74.04
2022-11-16T06:55:19.325Z,74.24
2022-11-16T06:56:21.038Z,74.28
2022-11-16T06:57:22.822Z,73.55
2022-11-16T06:58:24.465Z,72.29
2022-11-16T06:59:26.136Z,72.05
2022-11-16T07:00:28.147Z,71.06
2022-11-16T07:01:29.938Z,69.11
2022-11-16T07:02:31.809Z,67.66
2022-11-16T07:03:33.816Z,66.42
2022-11-16T07:04:35.440Z,64.91
2022-11-16T07:05:40.045Z,64.83
2022-11-16T07:06:41.772Z,63.69
2022-11-16T07:07:43.436Z,61.86
2022-11-16T07:08:45.280Z,61.74
2022-11-16T07:09:46.970Z,60.10
2022-11-16T07:10:48.631Z,59.38
2022-11-16T07:11:50.296Z,59.77
2022-11-16T07:12:51.947Z,59.63
2022-11-16T07:13:53.764Z,59.51
2022-11-16T07:14:55.451Z,58.74
2022-11-16T07:16:10.799Z,57.27
2022-11-16T07:17:12.450Z,57.02
2022-11-16T07:18:14.086Z,56.23
2022-11-16T07:19:15.760Z,54.23
2022-11-16T07:20:18.693Z,53.63
2022-11-16T07:21:20.392Z,51.90
2022-11-16T07:22:22.077Z,50.62
2022-11-16T07:23:23.826Z,50.81
2022-11-16T07:24:25.492Z,49.05
2022-11-16T07:25:27.243Z,49.23
2022-11-16T07:26:31.702Z,49.76
2022-11-16T07:27:33.449Z,48.33
2022-11-16T07:28:35.938Z,47.80
2022-11-16T07:29:37.877Z,47.87
2022-11-16T07:30:39.553Z,47.90
2022-11-16T07:31:41.300Z,47.21
2022-11-16T07:32:43.285Z,46.94
2022-11-16T07:33:44.974Z,46.38
2022-11-16T07:34:46.620Z,45.94
2022-11-16T07:35:48.275Z,44.17
2022-11-16T07:36:49.990Z,45.54
2022-11-16T07:37:51.735Z,43.86
2022-11-16T07:38:53.417Z,43.97
2022-11-16T07:39:55.146Z,43.24
2022-11-16T07:41:01.226Z,43.40
2022-11-16T07:42:02.877Z,42.96
2022-11-16T07:43:04.555Z,43.14
2022-11-16T07:44:10.891Z,42.13
2022-11-16T07:45:14.028Z,41.86
2022-11-16T07:46:45.798Z,42.35
2022-11-16T07:47:43.031Z,42.00
2022-11-16T07:48:45.287Z,40.94
2022-11-16T07:49:48.915Z,40.89
2022-11-16T07:50:50.595Z,40.80
2022-11-16T07:51:52.234Z,40.13
2022-11-16T07:52:55.610Z,40.13
2022-11-16T07:53:57.326Z,40.17
2022-11-16T07:54:59.086Z,39.50
2022-11-16T07:56:01.139Z,39.63
2022-11-16T07:57:02.906Z,39.14
2022-11-16T07:58:04.739Z,38.60
2022-11-16T07:59:06.615Z,37.98
2022-11-16T08:00:09.000Z,37.24
2022-11-16T08:01:15.179Z,36.63
2022-11-16T08:02:17.008Z,37.64
2022-11-16T08:03:24.382Z,36.28
2022-11-16T08:04:26.395Z,36.49
2022-11-16T08:05:28.044Z,36.06
2022-11-16T08:06:31.349Z,36.14
2022-11-16T08:07:34.498Z,36.99
2022-11-16T08:08:36.310Z,35.92
2022-11-16T08:09:39.592Z,35.05
2022-11-16T08:10:41.311Z,35.39
2022-11-16T08:11:43.051Z,35.75
2022-11-16T08:12:44.692Z,34.24
2022-11-16T08:13:46.445Z,35.34
2022-11-16T08:14:48.103Z,35.00
2022-11-16T08:15:49.849Z,34.36
2022-11-16T08:16:51.502Z,34.32
2022-11-16T08:17:53.182Z,33.86
2022-11-16T08:18:54.859Z,33.29
2022-11-16T08:19:56.546Z,33.05
2022-11-16T08:21:02.071Z,32.91
2022-11-16T08:22:03.921Z,33.79
2022-11-16T08:23:05.991Z,34.68
2022-11-16T08:24:08.090Z,33.42
2022-11-16T08:25:10.037Z,33.17
2022-11-16T08:26:17.620Z,32.85
2022-11-16T08:27:19.308Z,33.43
2022-11-16T08:28:20.960Z,31.81
2022-11-16T08:29:22.613Z,32.66
2022-11-16T08:30:24.360Z,31.12
2022-11-16T08:31:28.676Z,31.89
2022-11-16T08:32:31.157Z,31.10
2022-11-16T08:33:32.802Z,32.01
2022-11-16T08:34:34.568Z,32.04
2022-11-16T08:35:36.780Z,32.06
2022-11-16T08:36:38.458Z,30.76
2022-11-16T08:37:40.095Z,30.56
2022-11-16T08:38:41.804Z,31.37
2022-11-16T08:39:43.528Z,30.79
2022-11-16T08:40:45.627Z,30.10
2022-11-16T08:41:47.355Z,30.48
2022-11-16T08:42:49.043Z,29.81
2022-11-16T08:43:50.913Z,29.78
2022-11-16T08:44:52.667Z,29.33
2022-11-16T08:45:54.396Z,29.70
2022-11-16T08:46:56.074Z,29.37
2022-11-16T08:48:03.333Z,29.03
2022-11-16T08:49:05.628Z,29.60
2022-11-16T08:50:07.589Z,29.57
2022-11-16T08:51:20.835Z,30.22
2022-11-16T08:52:22.906Z,31.16
2022-11-16T08:53:25.132Z,29.91
2022-11-16T08:54:29.270Z,30.97
2022-11-16T08:55:30.906Z,30.78
2022-11-16T08:56:33.054Z,30.58
2022-11-16T08:57:34.742Z,31.42
2022-11-16T08:58:36.694Z,29.50
2022-11-16T08:59:38.395Z,30.25
2022-11-16T09:00:40.152Z,30.49
2022-11-16T09:01:41.879Z,30.00
2022-11-16T09:02:43.726Z,30.16
2022-11-16T09:03:46.102Z,30.10
2022-11-16T09:04:47.773Z,29.62
2022-11-16T09:05:49.431Z,29.03
2022-11-16T09:06:53.043Z,30.45
2022-11-16T09:07:54.785Z,30.93
2022-11-16T09:08:57.190Z,31.88
2022-11-16T09:09:58.830Z,31.85
2022-11-16T09:11:04.899Z,31.64
2022-11-16T09:12:06.935Z,31.07
2022-11-16T09:13:08.589Z,31.03
2022-11-16T09:14:10.296Z,30.10
2022-11-16T09:15:11.932Z,30.99
2022-11-16T09:16:16.869Z,30.80
2022-11-16T09:17:22.919Z,30.63
2022-11-16T09:18:25.396Z,31.40
2022-11-16T09:19:27.158Z,30.51
2022-11-16T09:20:29.428Z,29.38
2022-11-16T09:21:31.129Z,31.04
2022-11-16T09:22:32.866Z,31.35
2022-11-16T09:23:34.649Z,30.35
2022-11-16T09:24:36.332Z,30.89
2022-11-16T09:25:38.028Z,29.64
2022-11-16T09:26:39.684Z,30.31
2022-11-16T09:27:41.371Z,31.03
2022-11-16T09:28:43.045Z,31.15
2022-11-16T09:29:44.716Z,31.55
2022-11-16T09:30:49.654Z,31.81
2022-11-16T09:31:51.310Z,31.50
2022-11-16T09:32:53.030Z,30.21
2022-11-16T09:33:58.492Z,31.81
2022-11-16T09:35:00.248Z,32.55
2022-11-16T09:36:07.290Z,34.19
2022-11-16T09:37:08.988Z,33.06
2022-11-16T09:38:13.610Z,32.35
2022-11-16T09:39:33.254Z,32.07
2022-11-16T09:40:38.213Z,31.57
2022-11-16T09:42:02.526Z,31.46
2022-11-16T09:43:26.467Z,31.46
2022-11-16T09:44:39.472Z,31.16
2022-11-16T09:45:58.380Z,31.83
2022-11-16T09:47:01.921Z,31.12
2022-11-16T09:48:06.731Z,30.66
2022-11-16T09:49:40.821Z,29.80
2022-11-16T09:50:51.379Z,29.70
2022-11-16T09:51:59.592Z,29.76
2022-11-16T09:53:16.506Z,29.74
2022-11-16T09:54:23.170Z,29.98
2022-11-16T09:55:42.530Z,29.06
2022-11-16T09:56:47.561Z,29.08
2022-11-16T09:57:52.610Z,29.33
2022-11-16T09:58:54.190Z,30.07
2022-11-16T10:00:02.192Z,28.91
2022-11-16T10:01:14.349Z,28.42
2022-11-16T10:02:23.969Z,28.35
2022-11-16T10:03:27.762Z,28.72
2022-11-16T10:05:07.878Z,28.19
2022-11-16T10:06:21.464Z,28.47
2022-11-16T10:07:41.858Z,28.51
2022-11-16T10:08:45.682Z,29.07
2022-11-16T10:09:47.979Z,30.76
2022-11-16T10:11:23.332Z,29.80
2022-11-16T10:12:38.094Z,30.61
2022-11-16T10:13:50.473Z,32.53
2022-11-16T10:15:23.676Z,31.17
2022-11-16T10:17:01.229Z,31.24
2022-11-16T10:18:40.416Z,31.26
2022-11-16T10:20:20.423Z,31.45
2022-11-16T10:21:25.848Z,32.44
2022-11-16T10:22:30.417Z,32.57
2022-11-16T10:23:37.940Z,31.87
2022-11-16T10:24:57.931Z,31.67
2022-11-16T10:26:11.601Z,30.58
2022-11-16T10:27:39.455Z,31.38
2022-11-16T10:28:43.992Z,32.07
2022-11-16T10:29:57.347Z,32.28
2022-11-16T10:31:40.191Z,32.06
2022-11-16T10:32:53.071Z,32.08
2022-11-16T10:33:58.764Z,32.56
2022-11-16T10:35:16.063Z,32.46
2022-11-16T10:36:19.396Z,31.28
2022-11-16T10:37:23.939Z,30.92
2022-11-16T10:38:30.438Z,30.39
2022-11-16T10:39:34.167Z,30.02
2022-11-16T10:40:37.758Z,29.93
2022-11-16T10:41:50.561Z,30.72
2022-11-16T10:43:00.452Z,30.22
2022-11-16T10:44:02.762Z,29.96
2022-11-16T10:45:12.006Z,29.87
2022-11-16T10:46:31.716Z,30.10
2022-11-16T10:47:42.804Z,30.45
2022-11-16T10:49:02.537Z,30.26
2022-11-16T10:50:47.560Z,30.69
2022-11-16T10:51:49.261Z,31.51
2022-11-16T10:52:50.913Z,30.81
2022-11-16T10:53:53.979Z,31.09
2022-11-16T10:54:55.696Z,32.27
2022-11-16T10:56:03.291Z,31.77
2022-11-16T10:57:14.055Z,32.14
2022-11-16T10:58:15.792Z,32.44
2022-11-16T10:59:20.582Z,32.67
2022-11-16T11:00:49.297Z,32.30
2022-11-16T11:01:56.262Z,33.87
2022-11-16T11:02:57.920Z,34.18
2022-11-16T11:04:21.336Z,33.48
2022-11-16T11:05:23.092Z,33.63
2022-11-16T11:06:26.659Z,33.97
2022-11-16T11:07:34.401Z,34.04
2022-11-16T11:08:36.118Z,34.71
2022-11-16T11:09:38.752Z,34.74
2022-11-16T11:10:42.183Z,35.47
2022-11-16T11:12:24.046Z,36.74
2022-11-16T11:13:26.931Z,37.75
2022-11-16T11:14:28.631Z,36.87
2022-11-16T11:15:30.328Z,36.79
2022-11-16T11:16:32.177Z,37.14
2022-11-16T11:17:36.121Z,37.51
2022-11-16T11:18:37.879Z,37.47
2022-11-16T11:19:39.551Z,38.93
2022-11-16T11:20:45.099Z,38.78
2022-11-16T11:21:47.584Z,39.24
2022-11-16T11:22:59.163Z,39.93
2022-11-16T11:24:37.431Z,39.41
2022-11-16T11:25:27.990Z,39.45
2022-11-16T11:26:37.204Z,40.73
2022-11-16T11:27:39.733Z,40.94
2022-11-16T11:28:48.073Z,42.93
2022-11-16T11:29:55.510Z,41.85
2022-11-16T11:31:11.688Z,43.18
2022-11-16T11:32:22.453Z,42.57
2022-11-16T11:33:38.117Z,43.82
2022-11-16T11:34:43.784Z,44.41
2022-11-16T11:35:45.473Z,44.08
2022-11-16T11:36:55.319Z,46.35
2022-11-16T11:38:07.457Z,44.41
2022-11-16T11:39:12.648Z,45.48
2022-11-16T11:40:23.384Z,45.74
2022-11-16T11:41:25.959Z,45.84
2022-11-16T11:42:28.054Z,46.04
2022-11-16T11:43:29.901Z,46.25
2022-11-16T11:44:38.697Z,46.27
2022-11-16T11:45:49.625Z,46.11
2022-11-16T11:49:01.639Z,46.37
2022-11-16T11:50:14.155Z,47.92
2022-11-16T11:51:25.558Z,47.87
2022-11-16T11:52:44.633Z,47.22
2022-11-16T11:53:59.329Z,47.67
2022-11-16T11:55:05.737Z,47.43
2022-11-16T11:56:11.733Z,47.66
2022-11-16T11:57:20.734Z,47.78
2022-11-16T11:58:28.376Z,47.05
2022-11-16T11:59:30.394Z,46.59
2022-11-16T12:00:49.356Z,46.89
2022-11-16T12:02:25.707Z,46.99
2022-11-16T12:03:45.389Z,46.98
2022-11-16T12:05:08.320Z,47.43
2022-11-16T12:06:22.888Z,48.25
2022-11-16T12:07:48.973Z,48.23
2022-11-16T12:09:09.017Z,48.77
2022-11-16T12:10:22.568Z,48.22
2022-11-16T12:11:39.437Z,48.44
2022-11-16T12:13:02.514Z,49.42
2022-11-16T12:14:29.624Z,49.38
2022-11-16T12:15:52.409Z,48.94
2022-11-16T12:17:36.453Z,49.70
2022-11-16T12:19:10.281Z,49.15
2022-11-16T12:20:26.598Z,49.74
2022-11-16T12:21:41.362Z,49.51
2022-11-16T12:23:24.879Z,50.04
2022-11-16T12:24:26.478Z,50.40
2022-11-16T12:25:39.079Z,49.96
2022-11-16T12:26:41.363Z,49.72
2022-11-16T12:28:10.803Z,49.64
2022-11-16T12:29:25.875Z,49.38
2022-11-16T12:30:27.972Z,49.91
2022-11-16T12:31:41.962Z,49.82
2022-11-16T12:32:53.068Z,49.69
2022-11-16T12:34:34.398Z,50.93
2022-11-16T12:35:49.269Z,50.75
2022-11-16T12:37:11.086Z,50.93
2022-11-16T12:38:26.650Z,50.48
2022-11-16T12:39:34.506Z,50.88
2022-11-16T12:40:41.350Z,50.18
2022-11-16T12:42:13.724Z,50.45
2022-11-16T12:43:21.280Z,50.10
2022-11-16T12:44:57.696Z,50.41
2022-11-16T12:46:20.577Z,49.29
2022-11-16T12:47:55.795Z,49.46
2022-11-16T12:49:19.029Z,50.10
2022-11-16T12:50:45.008Z,48.13
2022-11-16T12:52:12.289Z,47.96
2022-11-16T12:53:16.617Z,47.30
2022-11-16T12:54:52.445Z,47.49
2022-11-16T12:56:44.562Z,47.19
2022-11-16T12:58:02.632Z,47.20
2022-11-16T12:59:36.652Z,47.09
2022-11-16T13:01:10.640Z,47.64
2022-11-16T13:02:41.345Z,47.09
2022-11-16T13:03:49.229Z,47.78
2022-11-16T13:05:03.941Z,47.25
2022-11-16T13:06:15.275Z,47.57
2022-11-16T13:07:30.204Z,47.79
2022-11-16T13:08:41.032Z,47.90
2022-11-16T13:10:00.689Z,48.55
2022-11-16T13:11:17.442Z,48.72
2022-11-16T13:12:23.609Z,48.21
2022-11-16T13:13:38.351Z,48.91
2022-11-16T13:14:45.419Z,47.54
2022-11-16T13:15:48.136Z,47.33
2022-11-16T13:16:51.394Z,47.22
2022-11-16T13:17:59.994Z,47.35
2022-11-16T13:19:05.729Z,47.20
2022-11-16T13:20:35.300Z,47.78
2022-11-16T13:21:59.982Z,47.37
2022-11-16T13:23:26.020Z,48.68
2022-11-16T13:24:51.757Z,47.60
2022-11-16T13:26:01.754Z,48.05
2022-11-16T13:27:06.240Z,47.56
2022-11-16T13:28:10.751Z,47.78
2022-11-16T13:29:22.580Z,48.47
2022-11-16T13:30:57.663Z,47.90
2022-11-16T13:32:07.574Z,46.92
2022-11-16T13:33:28.887Z,47.77
2022-11-16T13:34:35.934Z,47.40
2022-11-16T13:35:38.770Z,47.22
2022-11-16T13:36:45.476Z,47.78
2022-11-16T13:37:48.988Z,47.66
2022-11-16T13:38:54.189Z,47.08
2022-11-16T13:39:58.861Z,47.18
2022-11-16T13:41:31.401Z,46.80
2022-11-16T13:42:43.895Z,47.49
2022-11-16T13:43:49.863Z,47.16
2022-11-16T13:44:52.328Z,47.00
2022-11-16T13:46:01.054Z,48.12
2022-11-16T13:47:05.766Z,47.83
2022-11-16T13:48:20.368Z,47.06
2022-11-16T13:49:24.737Z,47.55
2022-11-16T13:50:37.683Z,47.70
2022-11-16T13:51:39.690Z,47.79
2022-11-16T13:55:42.945Z,48.22
2022-11-16T13:56:50.247Z,47.63
2022-11-16T13:57:54.739Z,47.89
2022-11-16T13:58:57.764Z,48.48
2022-11-16T14:00:02.165Z,48.91
2022-11-16T14:01:10.924Z,48.18
2022-11-16T14:02:32.916Z,49.10
2022-11-16T14:03:41.847Z,48.68
2022-11-16T14:05:00.529Z,49.06
2022-11-16T14:06:02.190Z,48.75
2022-11-16T14:07:03.934Z,49.27
2022-11-16T14:08:37.312Z,49.92
2022-11-16T14:09:47.632Z,49.39
2022-11-16T14:10:50.113Z,49.78
2022-11-16T14:11:51.770Z,50.11
2022-11-16T14:12:54.760Z,50.19
2022-11-16T14:13:57.438Z,50.68
2022-11-16T14:15:28.631Z,51.11
2022-11-16T14:16:30.881Z,51.16
2022-11-16T14:18:12.045Z,51.28
2022-11-16T14:19:44.969Z,51.73
2022-11-16T14:20:57.191Z,51.93
2022-11-16T14:22:12.671Z,52.30
2022-11-16T14:23:32.166Z,51.37
2022-11-16T14:24:47.222Z,52.08
2022-11-16T14:26:06.950Z,51.73
2022-11-16T14:27:36.667Z,51.53
2022-11-16T14:28:54.360Z,51.61
2022-11-16T14:30:14.390Z,51.74
2022-11-16T14:31:26.708Z,52.75
2022-11-16T14:32:39.771Z,52.83
2022-11-16T14:33:50.071Z,52.56
2022-11-16T14:34:55.280Z,53.30
2022-11-16T14:35:57.267Z,53.07